Dauntless Aviation
Airports South America Argentina
SAEZ
EZE

Ministro Pistarini International Airport

Buenos Aires, ARGENTINA

Airport Info
Suggest Updated Information for this Airport

Location

Latitude / Longitude: 34°49'19"S / 58°32'8"W
  34°49.332'S / 58°32.148'W
  -34.8222 / -58.5358

Nearby radio navigation aids

EZE EZEIZA VOR/DME on field.

Runway Information

Runway 11 /29

Dimensions: 10827 x 197 ft.
Surface: ASP
 
Runway 11
Runway 29
Latitude: -34.819056 -34.825367
Longitude: -58.553453 -58.518253
Elevation: 62 ft. 62 ft.
Runway true heading: 105.2 285.2
 

Runway 17 /35

Dimensions: 10187 x 148 ft.
Surface: ASP
 
Runway 17
Runway 35
Latitude: -34.808264 -34.832597
Longitude: -58.53395 -58.525497
Elevation: 62 ft. 62 ft.
Runway true heading: 167.2 347.2
 

Instrument Procedures

  Aerodrome Chart
  Aerodrome Chart
  Parking / Docking Chart
  Parking / Docking Chart (Commercial Ramp)
  Parking / Docking Chart (Cargo Ramp)

STARs (Standard Terminal Arrivals)

  STAR Rwy 11 BELGRANO6A VALOS7A ASADA6A SAN ANTONIO6A PAGON6A
  STAR Rwy 35 BELGRANO6B VALOS6B ASADA6B SAN ANTONIO6B PAGON6B
  STAR Rwy 35 KUKEN6B PAPIX6B SARGO6B KOVUK6B TENIL6B

IAPs (Instrument Approach Procedures)

  ILS DME Rwy 11
  VOR/DME ILS/DME Rwy 11
  LI ILS/DME Rwy 11
  ILS/DME CAT II and IIIa Rwy 11 (via ARSOT)
  VOR/DME ILS/DME Rwy 11 CAT II/IIIa
  LI ILS/DME Rwy 11 CAT II/IIIa
  VOR/DME LO LI Rwy 11
  LI LO/LI Rwy 11
  ILS DME Rwy 35 (via GESTA)
  VOR ILS/DME Rwy 35
  LI ILS/DME Rwy 35
  VOR/DME LO LI Rwy 35
  VOR/DME Rwy 29
  VOR/DME Rwy 29
  Low Visibility Procedures for ILS Approaches
  VOR DME Rwy 25

Departure Procedures

  SID Rwy 11 KUKEN6A PAPIX6A SARGO6A KOVUK6A TENIL6A
  SID Rwy 11/29 17/35 LANDA2A BIVAM2A ATOVO2A
  SID Rwy 11/29 17/35 LAPLATA6A/6B BELGRANO6
  SID Rwy 11/29 17/35 TORUL1
Satellite photo at:
Airport distance calculator
From:
Weather Reports

METAR

TAF

SAEZ
TAF SAEZ 210500Z 2106/2206 VRB02KT 4000 BR NSC TX13/2118Z TNM02/2110Z PROB40 TEMPO 2108/2111 0800 BCFG NSC BECMG 2113/2114 32005KT CAVOK BECMG 2120/2122 02005KT
SABE
16.4nm N
TAF SABE 210500Z 2106/2206 VRB03KT CAVOK TX13/2118Z TN05/2012Z BECMG 2116/2118 02010KT
SADF
22.5nm NW
TAF SADF 210500Z 2106/2206 VRB03KT CAVOK TX14/2118Z TN01/2012Z BECMG 2114/2116 02005KT
Safelog

 

Dauntless Aviation

© 2007-2018 Dauntless Aviation, all rights reserved
Information provided via PilotNav comes from a variety of official and unofficial data sources. As errors are possible, do not use PilotNav for primary flight planning purposes. Verify any information that you receive via PilotNav with current and canonical charts and other official documents. The material in this database is subject to database copyrights held by Dauntless Aviation and may not be copied without the express permission of Dauntless Aviation - licenses for use of part of all of this data are available for purchase; enquire via the Dauntless Aviation helpdesk. A number of mechanisms and markers exist in the database to protect against and identify infringement / copyright. Automated queries against this website are stictly prohibited, and all activity is logged and analyzed.